createdAt,value
2023-05-05T00:02:41.532Z,4.70
2023-05-05T00:05:27.142Z,4.85
2023-05-05T00:08:13.121Z,4.88
2023-05-05T00:10:58.980Z,5.20
2023-05-05T00:13:44.639Z,4.95
2023-05-05T00:16:30.849Z,5.57
2023-05-05T00:19:17.065Z,5.15
2023-05-05T00:22:02.454Z,5.25
2023-05-05T00:24:48.332Z,5.20
2023-05-05T00:27:34.006Z,5.00
2023-05-05T00:30:21.113Z,4.70
2023-05-05T00:33:06.974Z,5.50
2023-05-05T00:35:52.686Z,5.05
2023-05-05T00:38:39.030Z,4.97
2023-05-05T00:41:24.614Z,5.05
2023-05-05T00:44:10.363Z,5.13
2023-05-05T00:46:56.619Z,5.40
2023-05-05T00:49:42.687Z,4.95
2023-05-05T00:52:29.189Z,5.30
2023-05-05T00:55:15.089Z,5.53
2023-05-05T00:58:03.171Z,6.20
2023-05-05T01:00:49.240Z,5.10
2023-05-05T01:03:38.567Z,5.28
2023-05-05T01:06:33.690Z,5.05
2023-05-05T01:09:31.211Z,5.25
2023-05-05T01:12:57.013Z,5.10
2023-05-05T01:16:15.763Z,5.43
2023-05-05T01:19:07.955Z,5.75
2023-05-05T01:22:00.915Z,5.13
2023-05-05T01:25:22.383Z,5.53
2023-05-05T01:29:13.990Z,5.35
2023-05-05T01:32:08.205Z,5.40
2023-05-05T01:35:03.010Z,6.00
2023-05-05T01:38:02.787Z,5.70
2023-05-05T01:41:03.205Z,5.32
2023-05-05T01:43:51.480Z,4.88
2023-05-05T01:46:37.583Z,4.85
2023-05-05T01:49:23.731Z,5.60
2023-05-05T01:52:10.443Z,5.53
2023-05-05T01:54:58.912Z,5.40
2023-05-05T01:57:47.172Z,5.53
2023-05-05T02:00:34.289Z,6.00
2023-05-05T02:03:23.388Z,5.88
2023-05-05T02:06:10.282Z,5.40
2023-05-05T02:08:58.354Z,5.43
2023-05-05T02:11:43.961Z,5.68
2023-05-05T02:14:31.304Z,5.22
2023-05-05T02:17:18.131Z,5.47
2023-05-05T02:20:05.117Z,5.60
2023-05-05T02:22:51.709Z,6.18
2023-05-05T02:25:49.653Z,5.68
2023-05-05T02:28:56.692Z,4.57
2023-05-05T02:31:48.240Z,5.32
2023-05-05T02:34:43.168Z,5.55
2023-05-05T02:37:34.949Z,5.47
2023-05-05T02:40:26.584Z,5.50
2023-05-05T02:43:18.436Z,5.28
2023-05-05T02:46:05.638Z,5.20
2023-05-05T02:48:52.231Z,5.25
2023-05-05T02:51:37.895Z,5.25
2023-05-05T02:54:28.914Z,5.25
2023-05-05T02:57:18.774Z,5.40
2023-05-05T03:00:24.321Z,6.03
2023-05-05T03:03:29.670Z,5.40
2023-05-05T03:06:20.492Z,6.10
2023-05-05T03:09:14.214Z,5.53
2023-05-05T03:12:19.377Z,5.78
2023-05-05T03:15:14.766Z,5.60
2023-05-05T03:18:02.576Z,5.95
2023-05-05T03:20:49.833Z,6.15
2023-05-05T03:23:37.622Z,5.65
2023-05-05T03:26:28.404Z,6.20
2023-05-05T03:29:15.735Z,5.35
2023-05-05T03:32:01.655Z,6.35
2023-05-05T03:34:48.408Z,5.93
2023-05-05T03:37:34.709Z,5.90
2023-05-05T03:40:23.515Z,5.90
2023-05-05T03:43:16.623Z,6.05
2023-05-05T03:46:02.320Z,5.70
2023-05-05T03:48:48.765Z,5.90
2023-05-05T03:51:35.130Z,5.70
2023-05-05T03:54:20.815Z,5.80
2023-05-05T03:57:07.088Z,5.40
2023-05-05T03:59:53.996Z,6.07
2023-05-05T04:02:39.464Z,6.05
2023-05-05T04:05:26.414Z,6.95
2023-05-05T04:08:12.712Z,5.60
2023-05-05T04:10:58.758Z,6.40
2023-05-05T04:13:44.873Z,6.00
2023-05-05T04:16:31.069Z,5.38
2023-05-05T04:19:19.137Z,6.28
2023-05-05T04:22:08.156Z,6.15
2023-05-05T04:24:54.369Z,6.15
2023-05-05T04:27:41.181Z,6.18
2023-05-05T04:30:27.641Z,6.07
2023-05-05T04:33:14.283Z,6.28
2023-05-05T04:35:59.898Z,6.70
2023-05-05T04:38:46.648Z,5.70
2023-05-05T04:41:32.916Z,6.00
2023-05-05T04:44:18.886Z,6.70
2023-05-05T04:47:04.963Z,6.00
2023-05-05T04:49:50.988Z,6.28
2023-05-05T04:52:38.079Z,6.30
2023-05-05T04:55:24.616Z,5.50
2023-05-05T04:58:10.525Z,5.47
2023-05-05T05:00:56.381Z,6.00
2023-05-05T05:03:42.366Z,5.55
2023-05-05T05:06:29.366Z,5.72
2023-05-05T05:09:15.814Z,6.75
2023-05-05T05:12:05.812Z,6.18
2023-05-05T05:14:51.938Z,5.95
2023-05-05T05:17:37.830Z,6.13
2023-05-05T05:20:24.506Z,5.80
2023-05-05T05:23:10.511Z,6.40
2023-05-05T05:26:01.173Z,5.75
2023-05-05T05:28:49.758Z,5.85
2023-05-05T05:31:37.015Z,6.72
2023-05-05T05:34:23.933Z,6.43
2023-05-05T05:37:10.051Z,6.95
2023-05-05T05:39:56.972Z,5.72
2023-05-05T05:42:44.545Z,5.93
2023-05-05T05:45:31.184Z,5.90
2023-05-05T05:48:16.900Z,6.20
2023-05-05T05:51:02.962Z,6.38
2023-05-05T05:53:48.468Z,5.75
2023-05-05T05:56:35.138Z,6.57
2023-05-05T05:59:21.213Z,6.22
2023-05-05T06:02:07.981Z,5.60
2023-05-05T06:04:54.112Z,6.15
2023-05-05T06:07:40.025Z,6.85
2023-05-05T06:10:28.228Z,6.18
2023-05-05T06:13:27.862Z,6.13
2023-05-05T06:16:13.330Z,6.75
2023-05-05T06:19:01.699Z,6.83
2023-05-05T06:21:47.390Z,6.30
2023-05-05T06:24:33.446Z,6.38
2023-05-05T06:27:20.629Z,5.63
2023-05-05T06:30:08.329Z,5.53
2023-05-05T06:32:54.413Z,5.20
2023-05-05T06:35:40.175Z,5.93
2023-05-05T06:38:26.005Z,5.65
2023-05-05T06:41:11.602Z,5.30
2023-05-05T06:43:57.476Z,5.05
2023-05-05T06:46:44.184Z,5.07
2023-05-05T06:49:30.324Z,5.03
2023-05-05T06:52:19.783Z,4.88
2023-05-05T06:55:06.437Z,4.97
2023-05-05T06:58:04.184Z,4.82
2023-05-05T07:00:50.455Z,4.72
2023-05-05T07:03:40.118Z,5.35
2023-05-05T07:06:26.211Z,6.15
2023-05-05T07:09:17.034Z,5.38
2023-05-05T07:12:04.018Z,4.85
2023-05-05T07:14:49.758Z,5.20
2023-05-05T07:17:35.280Z,4.50
2023-05-05T07:20:21.510Z,4.80
2023-05-05T07:23:07.690Z,4.72
2023-05-05T07:25:55.066Z,5.30
2023-05-05T07:28:41.700Z,5.30
2023-05-05T07:31:27.372Z,5.20
2023-05-05T07:34:13.466Z,4.72
2023-05-05T07:36:58.856Z,5.22
2023-05-05T07:39:44.352Z,5.00
2023-05-05T07:42:30.071Z,5.25
2023-05-05T07:45:16.406Z,4.57
2023-05-05T07:48:02.661Z,5.25
2023-05-05T07:50:48.419Z,5.45
2023-05-05T07:53:34.184Z,4.30
2023-05-05T07:56:21.662Z,4.18
2023-05-05T07:59:08.550Z,3.65
2023-05-05T08:01:55.050Z,3.85
2023-05-05T08:04:43.413Z,4.32
2023-05-05T08:07:29.210Z,3.83
2023-05-05T08:10:16.396Z,3.28
2023-05-05T08:13:03.225Z,2.60
2023-05-05T08:15:55.743Z,2.15
2023-05-05T08:18:41.608Z,2.10
2023-05-05T08:21:27.971Z,2.00
2023-05-05T08:24:14.157Z,1.83
2023-05-05T08:26:59.789Z,2.10
2023-05-05T08:29:46.332Z,2.10
2023-05-05T08:32:32.417Z,1.88
2023-05-05T08:35:18.429Z,2.30
2023-05-05T08:38:04.483Z,1.60
2023-05-05T08:40:53.399Z,2.20
2023-05-05T08:43:39.769Z,2.30
2023-05-05T08:46:28.169Z,2.55
2023-05-05T08:49:16.557Z,2.67
2023-05-05T08:52:05.709Z,8.83
2023-05-05T08:57:56.648Z,4.10
2023-05-05T09:00:45.412Z,2.65
2023-05-05T09:03:34.157Z,2.75
2023-05-05T09:06:22.419Z,3.80
2023-05-05T09:09:09.505Z,2.78
2023-05-05T09:11:58.566Z,1.95
2023-05-05T09:14:46.291Z,2.40
2023-05-05T09:17:31.999Z,2.45
2023-05-05T09:20:18.417Z,2.20
2023-05-05T09:23:16.269Z,1.75
2023-05-05T09:26:08.971Z,2.17
2023-05-05T09:28:55.252Z,2.50
2023-05-05T09:31:43.467Z,1.90
2023-05-05T09:34:29.416Z,2.00
2023-05-05T09:37:31.350Z,2.00
2023-05-05T09:40:24.310Z,2.67
2023-05-05T09:43:10.317Z,2.25
2023-05-05T09:46:07.924Z,2.08
2023-05-05T09:48:54.746Z,1.95
2023-05-05T09:51:40.968Z,1.58
2023-05-05T09:54:30.010Z,1.75
2023-05-05T09:57:33.808Z,2.13
2023-05-05T10:00:21.826Z,2.10
2023-05-05T10:03:08.636Z,2.17
2023-05-05T10:06:01.241Z,2.28
2023-05-05T10:09:02.248Z,1.65
2023-05-05T10:11:48.457Z,1.60
2023-05-05T10:14:39.132Z,1.70
2023-05-05T10:17:27.390Z,1.27
2023-05-05T10:20:16.061Z,1.42
2023-05-05T10:23:17.427Z,1.40
2023-05-05T10:26:08.184Z,1.08
2023-05-05T10:29:04.468Z,1.48
2023-05-05T10:31:54.932Z,1.02
2023-05-05T10:34:55.902Z,1.05
2023-05-05T10:37:43.129Z,1.00
2023-05-05T10:40:30.767Z,1.45
2023-05-05T10:43:17.945Z,1.10
2023-05-05T10:46:05.078Z,1.30
2023-05-05T10:48:58.707Z,1.38
2023-05-05T10:52:23.407Z,1.00
2023-05-05T10:55:38.998Z,1.50
2023-05-05T10:58:55.300Z,1.08
2023-05-05T11:01:45.218Z,1.20
2023-05-05T11:04:31.796Z,1.15
2023-05-05T11:07:24.744Z,1.10
2023-05-05T11:10:13.461Z,1.40
2023-05-05T11:15:46.176Z,1.00
2023-05-05T11:18:40.178Z,1.20
2023-05-05T11:21:28.309Z,1.27
2023-05-05T11:24:32.343Z,1.05
2023-05-05T11:27:18.833Z,1.10
2023-05-05T11:30:08.945Z,1.05
2023-05-05T11:33:29.741Z,1.42
2023-05-05T11:36:20.544Z,1.40
2023-05-05T11:39:11.838Z,1.27
2023-05-05T11:42:23.402Z,1.20
2023-05-05T11:45:25.127Z,1.23
2023-05-05T11:48:27.398Z,1.73
2023-05-05T11:51:15.023Z,1.13
2023-05-05T11:54:01.120Z,1.30
2023-05-05T11:56:55.781Z,1.30
2023-05-05T12:00:06.357Z,1.50
2023-05-05T12:03:02.946Z,1.30
2023-05-05T12:05:49.229Z,1.33
2023-05-05T12:08:45.676Z,1.15
2023-05-05T12:11:37.478Z,1.13
2023-05-05T12:14:31.099Z,0.90
2023-05-05T12:17:20.804Z,1.30
2023-05-05T12:20:07.944Z,1.48
2023-05-05T12:23:03.169Z,1.30
2023-05-05T12:25:49.693Z,1.20
2023-05-05T12:28:48.728Z,1.58
2023-05-05T12:31:43.285Z,1.70
2023-05-05T12:34:31.107Z,1.38
2023-05-05T12:37:19.285Z,1.23
2023-05-05T12:40:06.727Z,1.23
2023-05-05T12:42:53.716Z,1.10
2023-05-05T12:45:41.009Z,1.48
2023-05-05T12:48:26.838Z,1.60
2023-05-05T12:51:23.650Z,1.00
2023-05-05T12:54:11.459Z,1.60
2023-05-05T12:56:57.870Z,1.48
2023-05-05T12:59:44.022Z,1.95
2023-05-05T13:02:35.876Z,1.70
2023-05-05T13:05:41.061Z,2.35
2023-05-05T13:08:45.623Z,1.80
2023-05-05T13:11:35.816Z,2.00
2023-05-05T13:14:22.199Z,2.20
2023-05-05T13:17:08.034Z,2.83
2023-05-05T13:19:53.655Z,2.28
2023-05-05T13:22:39.299Z,2.17
2023-05-05T13:25:25.249Z,1.90
2023-05-05T13:28:11.310Z,1.48
2023-05-05T13:30:58.746Z,1.40
2023-05-05T13:33:45.161Z,1.13
2023-05-05T13:36:31.158Z,1.58
2023-05-05T13:39:16.771Z,1.30
2023-05-05T13:42:02.567Z,2.08
2023-05-05T13:44:48.337Z,2.20
2023-05-05T13:47:34.135Z,1.90
2023-05-05T13:50:19.993Z,2.40
2023-05-05T13:53:06.064Z,2.08
2023-05-05T13:55:54.656Z,1.58
2023-05-05T13:58:41.588Z,1.92
2023-05-05T14:01:27.682Z,1.60
2023-05-05T14:04:13.686Z,1.90
2023-05-05T14:07:00.086Z,1.33
2023-05-05T14:09:45.789Z,1.55
2023-05-05T14:12:32.618Z,2.03
2023-05-05T14:15:18.661Z,2.38
2023-05-05T14:18:13.172Z,2.40
2023-05-05T14:21:00.547Z,2.15
2023-05-05T14:23:46.508Z,2.00
2023-05-05T14:26:33.777Z,2.05
2023-05-05T14:29:24.005Z,1.92
2023-05-05T14:32:10.910Z,1.90
2023-05-05T14:35:00.901Z,1.85
2023-05-05T14:37:47.720Z,1.40
2023-05-05T14:40:36.466Z,1.65
2023-05-05T14:43:35.141Z,1.88
2023-05-05T14:46:26.395Z,1.47
2023-05-05T14:49:30.645Z,1.63
2023-05-05T14:52:27.763Z,1.83
2023-05-05T14:58:57.020Z,2.05
2023-05-05T15:01:51.134Z,1.63
2023-05-05T15:04:36.945Z,1.50
2023-05-05T15:07:29.900Z,1.70
2023-05-05T15:10:19.728Z,1.50
2023-05-05T15:13:17.468Z,1.70
2023-05-05T15:16:03.941Z,1.50
2023-05-05T15:19:17.328Z,1.40
2023-05-05T15:22:24.124Z,1.38
2023-05-05T15:25:13.492Z,1.40
2023-05-05T15:28:01.024Z,1.35
2023-05-05T15:30:47.570Z,1.52
2023-05-05T15:33:33.844Z,1.65
2023-05-05T15:36:23.114Z,1.50
2023-05-05T15:39:09.464Z,1.98
2023-05-05T15:41:54.951Z,1.90
2023-05-05T15:44:40.641Z,1.73
2023-05-05T15:47:26.881Z,1.60
2023-05-05T15:50:13.241Z,1.85
2023-05-05T15:52:59.740Z,2.33
2023-05-05T15:56:11.770Z,3.92
2023-05-05T15:58:58.133Z,2.42
2023-05-05T16:01:44.405Z,2.03
2023-05-05T16:04:31.996Z,1.63
2023-05-05T16:07:18.521Z,2.10
2023-05-05T16:10:04.535Z,1.67
2023-05-05T16:12:51.918Z,1.70
2023-05-05T16:15:40.774Z,1.55
2023-05-05T16:18:27.292Z,1.65
2023-05-05T16:21:13.054Z,3.60
2023-05-05T16:23:58.946Z,3.53
2023-05-05T16:26:45.091Z,2.80
2023-05-05T16:30:10.553Z,2.55
2023-05-05T16:32:56.685Z,2.25
2023-05-05T16:35:46.604Z,3.20
2023-05-05T16:38:32.489Z,2.78
2023-05-05T16:41:17.966Z,2.85
2023-05-05T16:44:04.716Z,2.75
2023-05-05T16:46:50.574Z,2.90
2023-05-05T16:49:36.804Z,2.03
2023-05-05T16:52:22.868Z,1.90
2023-05-05T16:55:10.257Z,1.90
2023-05-05T16:57:56.034Z,1.40
2023-05-05T17:00:42.386Z,1.63
2023-05-05T17:03:28.562Z,1.42
2023-05-05T17:06:14.734Z,1.55
2023-05-05T17:09:01.099Z,2.13
2023-05-05T17:11:47.082Z,2.30
2023-05-05T17:14:33.946Z,1.98
2023-05-05T17:17:19.734Z,2.70
2023-05-05T17:20:06.706Z,2.30
2023-05-05T17:22:52.322Z,1.80
2023-05-05T17:25:38.087Z,1.98
2023-05-05T17:28:24.270Z,1.63
2023-05-05T17:31:11.052Z,1.00
2023-05-05T17:33:57.474Z,1.17
2023-05-05T17:36:43.303Z,1.25
2023-05-05T17:39:30.769Z,1.10
2023-05-05T17:42:22.983Z,1.40
2023-05-05T17:45:12.108Z,1.40
2023-05-05T17:48:00.018Z,1.42
2023-05-05T17:50:47.171Z,1.33
2023-05-05T17:53:33.021Z,1.20
2023-05-05T17:56:18.502Z,0.90
2023-05-05T17:59:07.889Z,0.88
2023-05-05T18:01:54.304Z,0.98
2023-05-05T18:04:40.387Z,0.95
2023-05-05T18:07:29.031Z,0.90
2023-05-05T18:10:16.733Z,1.40
2023-05-05T18:13:03.534Z,1.30
2023-05-05T18:15:49.639Z,1.55
2023-05-05T18:18:38.534Z,1.20
2023-05-05T18:21:24.744Z,1.42
2023-05-05T18:24:19.275Z,1.67
2023-05-05T18:27:09.653Z,1.42
2023-05-05T18:29:55.267Z,1.42
2023-05-05T18:32:41.615Z,1.42
2023-05-05T18:35:29.718Z,1.40
2023-05-05T18:38:15.816Z,1.90
2023-05-05T18:41:02.089Z,2.03
2023-05-05T18:43:48.313Z,2.47
2023-05-05T18:46:35.139Z,1.88
2023-05-05T18:49:23.691Z,1.83
2023-05-05T18:52:09.984Z,1.40
2023-05-05T18:54:58.512Z,1.10
2023-05-05T18:57:55.435Z,1.23
2023-05-05T19:00:44.879Z,1.35
2023-05-05T19:03:30.978Z,1.00
2023-05-05T19:11:46.727Z,1.48
2023-05-05T19:14:45.412Z,1.33
2023-05-05T19:17:33.400Z,1.20
2023-05-05T19:20:45.305Z,1.00
2023-05-05T19:23:36.150Z,1.80
2023-05-05T19:26:35.006Z,7.53
2023-05-05T19:29:32.630Z,4.47
2023-05-05T19:32:26.991Z,3.17
2023-05-05T19:35:13.831Z,1.95
2023-05-05T19:38:11.686Z,2.00
2023-05-05T19:40:57.758Z,1.27
2023-05-05T19:44:22.076Z,1.27
2023-05-05T19:47:09.023Z,1.05
2023-05-05T19:49:56.277Z,1.05
2023-05-05T19:52:42.392Z,1.10
2023-05-05T19:55:28.642Z,1.08
2023-05-05T19:58:16.244Z,0.90
2023-05-05T20:01:02.277Z,1.10
2023-05-05T20:03:48.586Z,0.98
2023-05-05T20:06:35.773Z,1.00
2023-05-05T20:09:22.676Z,0.90
2023-05-05T20:12:08.450Z,0.88
2023-05-05T20:14:55.129Z,1.42
2023-05-05T20:17:41.004Z,0.95
2023-05-05T20:20:27.802Z,1.50
2023-05-05T20:23:13.912Z,0.95
2023-05-05T20:26:00.818Z,1.13
2023-05-05T20:28:47.137Z,1.17
2023-05-05T20:32:20.811Z,1.10
2023-05-05T20:35:07.683Z,1.25
2023-05-05T20:37:53.801Z,1.13
2023-05-05T20:40:42.051Z,1.55
2023-05-05T20:43:28.407Z,1.48
2023-05-05T20:46:14.965Z,1.35
2023-05-05T20:49:01.281Z,1.08
2023-05-05T20:51:47.363Z,1.35
2023-05-05T20:54:36.641Z,1.50
2023-05-05T20:57:22.652Z,1.30
2023-05-05T21:00:09.661Z,1.58
2023-05-05T21:02:57.024Z,1.55
2023-05-05T21:05:44.798Z,1.50
2023-05-05T21:08:55.102Z,1.85
2023-05-05T21:11:40.895Z,2.05
2023-05-05T21:14:26.959Z,1.77
2023-05-05T21:17:13.182Z,1.70
2023-05-05T21:19:59.531Z,1.98
2023-05-05T21:22:45.947Z,1.75
2023-05-05T21:25:32.356Z,1.70
2023-05-05T21:28:18.462Z,1.48
2023-05-05T21:31:21.050Z,1.90
2023-05-05T21:34:07.867Z,1.52
2023-05-05T21:36:54.229Z,1.63
2023-05-05T21:39:40.737Z,1.90
2023-05-05T21:42:27.023Z,1.52
2023-05-05T21:45:13.471Z,1.65
2023-05-05T21:53:17.690Z,1.70
2023-05-05T21:56:13.826Z,1.80
2023-05-05T21:59:09.419Z,2.10
2023-05-05T22:02:05.225Z,1.83
2023-05-05T22:04:52.184Z,2.17
2023-05-05T22:08:16.661Z,1.88
2023-05-05T22:59:48.898Z,1.90
2023-05-05T23:03:07.564Z,1.73
2023-05-05T23:11:07.913Z,2.05
2023-05-05T23:14:04.237Z,1.85
2023-05-05T23:17:03.813Z,1.77
2023-05-05T23:20:00.036Z,1.92
2023-05-05T23:31:49.126Z,2.10
2023-05-05T23:35:11.227Z,1.90
2023-05-05T23:39:04.175Z,1.73
2023-05-05T23:42:13.693Z,1.90
2023-05-05T23:45:34.636Z,1.80
2023-05-05T23:48:21.659Z,1.65
2023-05-05T23:51:07.738Z,1.85
2023-05-05T23:56:23.665Z,1.85
2023-05-05T23:58:18.470Z,1.50
